createdAt,value
2023-02-12T00:01:51.892Z,8.10
2023-02-12T00:04:18.679Z,8.00
2023-02-12T00:06:45.397Z,8.00
2023-02-12T00:09:12.121Z,7.90
2023-02-12T00:11:38.878Z,7.80
2023-02-12T00:14:05.817Z,7.80
2023-02-12T00:16:32.608Z,7.70
2023-02-12T00:19:00.832Z,7.70
2023-02-12T00:21:27.973Z,7.70
2023-02-12T00:23:55.285Z,7.60
2023-02-12T00:26:22.976Z,7.60
2023-02-12T00:28:50.381Z,7.50
2023-02-12T00:31:28.563Z,7.50
2023-02-12T00:33:55.784Z,7.50
2023-02-12T00:36:25.380Z,7.40
2023-02-12T00:38:54.026Z,7.40
2023-02-12T00:41:21.386Z,7.30
2023-02-12T00:43:48.786Z,7.30
2023-02-12T00:46:16.203Z,7.20
2023-02-12T00:48:43.120Z,7.20
2023-02-12T00:51:10.242Z,7.20
2023-02-12T00:53:37.488Z,7.20
2023-02-12T00:56:04.792Z,7.10
2023-02-12T00:58:31.491Z,7.20
2023-02-12T01:00:58.168Z,7.20
2023-02-12T01:03:24.938Z,7.20
2023-02-12T01:05:52.413Z,7.20
2023-02-12T01:08:19.971Z,7.20
2023-02-12T01:11:01.808Z,7.10
2023-02-12T01:13:30.529Z,7.10
2023-02-12T01:16:13.589Z,7.00
2023-02-12T01:18:40.684Z,6.90
2023-02-12T01:21:13.050Z,6.90
2023-02-12T01:23:40.836Z,6.80
2023-02-12T01:26:10.644Z,6.80
2023-02-12T01:28:39.148Z,6.70
2023-02-12T01:31:15.522Z,6.70
2023-02-12T01:33:42.831Z,6.60
2023-02-12T01:36:11.095Z,6.60
2023-02-12T01:38:37.752Z,6.60
2023-02-12T01:41:10.265Z,6.50
2023-02-12T01:43:37.914Z,6.50
2023-02-12T01:46:05.610Z,6.50
2023-02-12T01:48:37.322Z,6.50
2023-02-12T01:51:04.518Z,6.50
2023-02-12T01:53:38.506Z,6.50
2023-02-12T01:56:06.434Z,6.50
2023-02-12T01:58:40.498Z,6.50
2023-02-12T02:01:10.954Z,6.50
2023-02-12T02:03:40.887Z,6.60
2023-02-12T02:06:19.735Z,6.60
2023-02-12T02:08:46.964Z,6.60
2023-02-12T02:11:32.098Z,6.60
2023-02-12T02:14:17.774Z,6.60
2023-02-12T02:16:54.291Z,6.60
2023-02-12T02:19:30.111Z,6.50
2023-02-12T02:22:10.142Z,6.50
2023-02-12T02:24:55.502Z,6.50
2023-02-12T02:27:35.956Z,6.40
2023-02-12T02:30:24.810Z,6.40
2023-02-12T02:32:51.566Z,6.30
2023-02-12T02:35:39.572Z,6.30
2023-02-12T02:38:10.846Z,6.20
2023-02-12T02:41:15.630Z,6.10
2023-02-12T02:43:50.696Z,6.10
2023-02-12T02:46:44.639Z,6.00
2023-02-12T02:49:18.419Z,6.00
2023-02-12T02:51:50.253Z,5.90
2023-02-12T02:54:39.163Z,5.80
2023-02-12T02:57:15.766Z,5.80
2023-02-12T02:59:52.352Z,5.80
2023-02-12T03:02:25.243Z,5.70
2023-02-12T03:04:58.018Z,5.70
2023-02-12T03:07:29.550Z,5.70
2023-02-12T03:10:12.320Z,5.60
2023-02-12T03:12:51.424Z,5.60
2023-02-12T03:15:28.835Z,5.50
2023-02-12T03:17:58.211Z,5.50
2023-02-12T03:20:30.304Z,5.40
2023-02-12T03:23:12.791Z,5.40
2023-02-12T03:26:05.074Z,5.30
2023-02-12T03:28:35.114Z,5.30
2023-02-12T03:31:01.836Z,5.20
2023-02-12T03:33:30.206Z,5.20
2023-02-12T03:36:13.824Z,5.20
2023-02-12T03:38:47.641Z,5.20
2023-02-12T03:41:24.141Z,5.10
2023-02-12T03:44:18.056Z,5.10
2023-02-12T03:46:57.839Z,5.10
2023-02-12T03:49:35.105Z,5.00
2023-02-12T03:52:03.054Z,5.00
2023-02-12T03:54:29.943Z,4.90
2023-02-12T03:56:59.533Z,4.90
2023-02-12T03:59:26.523Z,4.90
2023-02-12T04:01:56.004Z,4.80
2023-02-12T04:04:24.081Z,4.80
2023-02-12T04:06:52.803Z,4.80
2023-02-12T04:09:21.168Z,4.70
2023-02-12T04:12:04.737Z,4.80
2023-02-12T04:14:44.812Z,4.80
2023-02-12T04:17:19.888Z,4.80
2023-02-12T04:20:33.184Z,4.80
2023-02-12T04:23:34.957Z,4.80
2023-02-12T04:26:04.404Z,4.90
2023-02-12T04:28:40.762Z,4.90
2023-02-12T04:31:20.324Z,4.90
2023-02-12T04:33:57.604Z,5.00
2023-02-12T04:36:31.921Z,5.00
2023-02-12T04:39:06.929Z,5.10
2023-02-12T04:41:33.957Z,5.10
2023-02-12T04:44:14.258Z,5.10
2023-02-12T04:46:40.975Z,5.20
2023-02-12T04:49:15.318Z,5.20
2023-02-12T04:51:42.286Z,5.30
2023-02-12T04:54:09.016Z,5.30
2023-02-12T04:56:35.685Z,5.40
2023-02-12T04:59:02.386Z,5.40
2023-02-12T05:01:31.324Z,5.50
2023-02-12T05:03:58.214Z,5.50
2023-02-12T05:06:24.889Z,5.50
2023-02-12T05:08:53.694Z,5.60
2023-02-12T05:11:20.600Z,5.60
2023-02-12T05:13:51.271Z,5.60
2023-02-12T05:16:19.536Z,5.60
2023-02-12T05:18:46.822Z,5.60
2023-02-12T05:21:13.629Z,5.70
2023-02-12T05:23:41.536Z,5.60
2023-02-12T05:26:14.573Z,5.70
2023-02-12T05:28:41.811Z,5.80
2023-02-12T05:31:14.890Z,5.80
2023-02-12T05:33:46.265Z,5.80
2023-02-12T05:36:15.839Z,5.80
2023-02-12T05:38:43.035Z,5.80
2023-02-12T05:41:12.458Z,5.90
2023-02-12T05:43:40.333Z,5.90
2023-02-12T05:46:08.218Z,6.00
2023-02-12T05:48:35.668Z,6.00
2023-02-12T05:51:10.657Z,6.10
2023-02-12T05:53:38.658Z,6.10
2023-02-12T05:56:14.387Z,6.10
2023-02-12T05:58:42.837Z,6.10
2023-02-12T06:01:34.981Z,6.20
2023-02-12T06:04:03.412Z,6.20
2023-02-12T06:06:30.907Z,6.30
2023-02-12T06:08:58.276Z,6.30
2023-02-12T06:11:25.416Z,6.30
2023-02-12T06:13:52.212Z,6.40
2023-02-12T06:16:24.924Z,6.40
2023-02-12T06:18:52.223Z,6.40
2023-02-12T06:21:20.854Z,6.40
2023-02-12T06:23:48.208Z,6.40
2023-02-12T06:26:15.565Z,6.40
2023-02-12T06:28:42.396Z,6.50
2023-02-12T06:31:27.662Z,6.50
2023-02-12T06:33:56.589Z,6.50
2023-02-12T06:36:24.082Z,6.60
2023-02-12T06:38:50.948Z,6.60
2023-02-12T06:41:17.820Z,6.60
2023-02-12T06:43:44.498Z,6.60
2023-02-12T06:46:11.418Z,6.60
2023-02-12T06:48:38.172Z,6.60
2023-02-12T06:51:07.563Z,6.70
2023-02-12T06:53:35.043Z,6.70
2023-02-12T06:56:03.846Z,6.70
2023-02-12T06:58:30.980Z,6.70
2023-02-12T07:00:58.065Z,6.80
2023-02-12T07:03:24.777Z,6.80
2023-02-12T07:05:51.437Z,6.80
2023-02-12T07:08:18.093Z,6.90
2023-02-12T07:10:48.785Z,6.90
2023-02-12T07:13:15.583Z,6.90
2023-02-12T07:15:42.232Z,6.90
2023-02-12T07:18:08.888Z,7.00
2023-02-12T07:20:35.532Z,7.00
2023-02-12T07:23:02.217Z,7.00
2023-02-12T07:25:28.866Z,7.00
2023-02-12T07:27:55.508Z,7.10
2023-02-12T07:30:22.246Z,7.10
2023-02-12T07:32:48.926Z,7.10
2023-02-12T07:35:15.708Z,7.20
2023-02-12T07:37:42.347Z,7.20
2023-02-12T07:40:09.478Z,7.20
2023-02-12T07:42:36.114Z,7.30
2023-02-12T07:45:02.844Z,7.30
2023-02-12T07:47:29.544Z,7.30
2023-02-12T07:49:56.285Z,7.40
2023-02-12T07:52:22.910Z,7.40
2023-02-12T07:54:49.542Z,7.40
2023-02-12T07:57:16.186Z,7.40
2023-02-12T07:59:42.817Z,7.50
2023-02-12T08:02:09.846Z,7.60
2023-02-12T08:04:36.576Z,7.60
2023-02-12T08:07:03.553Z,7.60
2023-02-12T08:09:32.910Z,7.60
2023-02-12T08:11:59.674Z,7.70
2023-02-12T08:14:26.687Z,7.70
2023-02-12T08:16:53.464Z,7.80
2023-02-12T08:19:24.756Z,7.80
2023-02-12T08:21:54.271Z,7.90
2023-02-12T08:24:24.165Z,7.90
2023-02-12T08:26:51.423Z,7.90
2023-02-12T08:29:21.335Z,7.90
2023-02-12T08:31:50.069Z,8.00
2023-02-12T08:34:24.661Z,8.00
2023-02-12T08:36:56.506Z,8.00
2023-02-12T08:39:26.025Z,8.10
2023-02-12T08:41:54.843Z,8.10
2023-02-12T08:44:22.072Z,8.20
2023-02-12T08:46:51.310Z,8.20
2023-02-12T08:49:26.343Z,8.30
2023-02-12T08:51:55.166Z,8.30
2023-02-12T08:54:24.711Z,8.30
2023-02-12T08:56:56.399Z,8.40
2023-02-12T08:59:23.270Z,8.40
2023-02-12T09:01:52.146Z,8.50
2023-02-12T09:04:22.930Z,8.60
2023-02-12T09:06:50.544Z,8.60
2023-02-12T09:09:17.358Z,8.70
2023-02-12T09:11:44.766Z,8.70
2023-02-12T09:14:14.757Z,8.70
2023-02-12T09:16:41.726Z,8.80
2023-02-12T09:19:11.319Z,8.80
2023-02-12T09:21:38.069Z,8.90
2023-02-12T09:24:04.980Z,8.90
2023-02-12T09:26:31.822Z,9.00
2023-02-12T09:28:59.076Z,9.10
2023-02-12T09:31:28.925Z,9.20
2023-02-12T09:33:59.765Z,9.30
2023-02-12T09:36:27.134Z,9.30
2023-02-12T09:38:54.292Z,9.40
2023-02-12T09:41:45.846Z,9.50
2023-02-12T09:44:37.156Z,9.60
2023-02-12T09:47:42.345Z,9.70
2023-02-12T09:50:33.016Z,9.80
2023-02-12T09:53:00.558Z,9.80
2023-02-12T09:55:32.764Z,9.90
2023-02-12T09:58:02.311Z,9.90
2023-02-12T10:00:31.582Z,10.00
2023-02-12T10:03:05.308Z,10.10
2023-02-12T10:05:38.752Z,10.10
2023-02-12T10:08:23.943Z,10.20
2023-02-12T10:11:00.526Z,10.20
2023-02-12T10:13:39.425Z,10.20
2023-02-12T10:16:29.111Z,10.30
2023-02-12T10:19:16.974Z,10.30
2023-02-12T10:22:13.528Z,10.40
2023-02-12T10:25:12.039Z,10.40
2023-02-12T10:27:40.920Z,10.40
2023-02-12T10:30:26.783Z,10.40
2023-02-12T10:33:03.468Z,10.40
2023-02-12T10:35:32.337Z,10.40
2023-02-12T10:38:27.022Z,10.40
2023-02-12T10:40:57.696Z,10.50
2023-02-12T10:43:24.997Z,10.40
2023-02-12T10:45:52.400Z,10.40
2023-02-12T10:48:22.203Z,10.40
2023-02-12T10:50:58.232Z,10.50
2023-02-12T10:53:30.756Z,10.50
2023-02-12T10:56:12.951Z,10.40
2023-02-12T10:58:42.104Z,10.40
2023-02-12T11:01:31.127Z,10.40
2023-02-12T11:04:00.029Z,10.40
2023-02-12T11:06:32.038Z,10.40
2023-02-12T11:08:59.686Z,10.40
2023-02-12T11:11:31.721Z,10.40
2023-02-12T11:14:04.845Z,10.50
2023-02-12T11:16:37.708Z,10.50
2023-02-12T11:19:07.896Z,10.40
2023-02-12T11:21:36.496Z,10.40
2023-02-12T11:24:35.748Z,10.40
2023-02-12T11:27:16.290Z,10.40
2023-02-12T11:29:44.652Z,10.40
2023-02-12T11:32:20.898Z,10.40
2023-02-12T11:35:10.327Z,10.40
2023-02-12T11:37:42.156Z,10.20
2023-02-12T11:40:26.914Z,10.40
2023-02-12T11:43:05.721Z,10.40
2023-02-12T11:45:56.253Z,10.40
2023-02-12T11:48:33.790Z,10.40
2023-02-12T11:51:03.810Z,10.50
2023-02-12T11:53:40.466Z,10.50
2023-02-12T11:56:13.304Z,10.50
2023-02-12T11:58:40.943Z,10.50
2023-02-12T12:01:32.396Z,10.60
2023-02-12T12:04:12.871Z,10.60
2023-02-12T12:07:01.434Z,10.60
2023-02-12T12:09:45.866Z,10.60
2023-02-12T12:12:46.714Z,10.60
2023-02-12T12:15:38.299Z,10.60
2023-02-12T12:18:42.327Z,10.60
2023-02-12T12:21:34.348Z,10.50
2023-02-12T12:24:46.937Z,10.40
2023-02-12T12:27:56.903Z,10.30
2023-02-12T12:30:48.317Z,10.30
2023-02-12T12:33:40.076Z,10.30
2023-02-12T12:36:33.846Z,10.20
2023-02-12T12:39:28.443Z,10.20
2023-02-12T12:42:04.095Z,10.20
2023-02-12T12:45:08.560Z,10.30
2023-02-12T12:47:58.581Z,10.20
2023-02-12T12:51:07.305Z,10.20
2023-02-12T12:53:37.142Z,10.30
2023-02-12T12:56:35.474Z,10.20
2023-02-12T12:59:28.434Z,10.30
2023-02-12T13:02:22.874Z,10.20
2023-02-12T13:05:27.012Z,10.20
2023-02-12T13:08:18.303Z,10.20
2023-02-12T13:10:54.315Z,10.20
2023-02-12T13:13:27.133Z,10.20
2023-02-12T13:16:15.878Z,10.10
2023-02-12T13:18:51.317Z,10.10
2023-02-12T13:21:55.562Z,10.10
2023-02-12T13:24:48.902Z,10.20
2023-02-12T13:27:33.219Z,10.20
2023-02-12T13:30:05.000Z,10.30
2023-02-12T13:32:50.923Z,10.30
2023-02-12T13:35:23.607Z,10.30
2023-02-12T13:37:53.742Z,10.30
2023-02-12T13:40:25.782Z,10.20
2023-02-12T13:43:19.591Z,10.30
2023-02-12T13:46:04.895Z,10.30
2023-02-12T13:48:59.121Z,10.20
2023-02-12T13:51:44.677Z,10.30
2023-02-12T13:54:41.390Z,10.30
2023-02-12T13:57:19.360Z,10.30
2023-02-12T13:59:54.154Z,10.30
2023-02-12T14:02:43.179Z,10.30
2023-02-12T14:05:25.286Z,10.30
2023-02-12T14:07:55.437Z,10.30
2023-02-12T14:10:32.763Z,10.30
2023-02-12T14:13:17.541Z,10.30
2023-02-12T14:15:51.559Z,10.40
2023-02-12T14:18:26.031Z,10.30
2023-02-12T14:21:11.333Z,10.30
2023-02-12T14:23:50.683Z,10.40
2023-02-12T14:26:23.474Z,10.30
2023-02-12T14:29:00.133Z,10.30
2023-02-12T14:31:26.861Z,10.30
2023-02-12T14:34:16.087Z,10.30
2023-02-12T14:36:44.913Z,10.30
2023-02-12T14:39:20.915Z,10.30
2023-02-12T14:41:53.139Z,10.30
2023-02-12T14:44:23.261Z,10.30
2023-02-12T14:46:57.676Z,10.30
2023-02-12T14:49:32.817Z,10.20
2023-02-12T14:52:07.281Z,10.20
2023-02-12T14:54:37.792Z,10.20
2023-02-12T14:57:09.656Z,10.10
2023-02-12T14:59:41.969Z,10.10
2023-02-12T15:02:18.582Z,10.10
2023-02-12T15:04:45.818Z,10.10
2023-02-12T15:07:20.508Z,10.00
2023-02-12T15:09:52.760Z,10.10
2023-02-12T15:12:37.317Z,10.10
2023-02-12T15:15:37.397Z,10.20
2023-02-12T15:18:19.923Z,10.30
2023-02-12T15:20:54.656Z,10.10
2023-02-12T15:23:39.693Z,10.00
2023-02-12T15:26:12.976Z,10.00
2023-02-12T15:28:40.418Z,10.00
2023-02-12T15:31:10.593Z,10.00
2023-02-12T15:33:45.947Z,9.90
2023-02-12T15:36:22.012Z,9.90
2023-02-12T15:38:52.478Z,9.90
2023-02-12T15:41:24.830Z,9.90
2023-02-12T15:43:51.495Z,9.90
2023-02-12T15:46:18.715Z,9.80
2023-02-12T15:48:45.799Z,9.80
2023-02-12T15:51:35.354Z,9.80
2023-02-12T15:54:05.817Z,9.80
2023-02-12T15:56:33.922Z,9.70
2023-02-12T15:59:02.505Z,9.80
2023-02-12T16:01:32.455Z,9.70
2023-02-12T16:04:05.448Z,9.70
2023-02-12T16:06:34.699Z,9.70
2023-02-12T16:09:15.432Z,9.70
2023-02-12T16:11:45.485Z,9.70
2023-02-12T16:14:40.783Z,9.70
2023-02-12T16:17:29.351Z,9.70
2023-02-12T16:20:08.768Z,9.70
2023-02-12T16:22:42.865Z,9.60
2023-02-12T16:25:27.771Z,9.60
2023-02-12T16:28:14.620Z,9.60
2023-02-12T16:30:43.710Z,9.60
2023-02-12T16:33:36.334Z,9.60
2023-02-12T16:36:25.230Z,9.60
2023-02-12T16:38:54.060Z,9.50
2023-02-12T16:41:30.641Z,9.50
2023-02-12T16:44:00.419Z,9.40
2023-02-12T16:46:28.603Z,9.40
2023-02-12T16:48:57.920Z,9.40
2023-02-12T16:51:31.457Z,9.40
2023-02-12T16:54:02.293Z,9.40
2023-02-12T16:56:35.260Z,9.40
2023-02-12T16:59:02.239Z,9.50
2023-02-12T17:01:35.385Z,9.40
2023-02-12T17:04:06.689Z,9.40
2023-02-12T17:06:33.664Z,9.40
2023-02-12T17:09:00.672Z,9.40
2023-02-12T17:11:29.114Z,9.30
2023-02-12T17:13:56.789Z,9.30
2023-02-12T17:16:32.333Z,9.30
2023-02-12T17:19:00.515Z,9.30
2023-02-12T17:21:31.320Z,9.30
2023-02-12T17:23:58.164Z,9.30
2023-02-12T17:26:25.337Z,9.30
2023-02-12T17:28:52.126Z,9.30
2023-02-12T17:31:20.802Z,9.30
2023-02-12T17:33:47.612Z,9.40
2023-02-12T17:36:14.305Z,9.40
2023-02-12T17:38:40.962Z,9.40
2023-02-12T17:41:10.518Z,9.30
2023-02-12T17:43:37.246Z,9.40
2023-02-12T17:46:11.789Z,9.40
2023-02-12T17:48:38.633Z,9.40
2023-02-12T17:51:05.496Z,9.40
2023-02-12T17:53:32.435Z,9.40
2023-02-12T17:55:59.195Z,9.40
2023-02-12T17:58:25.888Z,9.30
2023-02-12T18:00:52.584Z,9.30
2023-02-12T18:03:19.238Z,9.30
2023-02-12T18:05:46.864Z,9.30
2023-02-12T18:08:13.613Z,9.20
2023-02-12T18:10:44.519Z,9.20
2023-02-12T18:13:11.712Z,9.20
2023-02-12T18:15:41.193Z,9.10
2023-02-12T18:18:08.419Z,9.20
2023-02-12T18:20:35.491Z,9.20
2023-02-12T18:23:03.529Z,9.20
2023-02-12T18:25:30.453Z,9.20
2023-02-12T18:27:57.275Z,9.20
2023-02-12T18:30:24.033Z,9.20
2023-02-12T18:32:50.710Z,9.20
2023-02-12T18:35:19.230Z,9.10
2023-02-12T18:37:47.933Z,9.10
2023-02-12T18:40:14.945Z,9.10
2023-02-12T18:42:41.681Z,9.10
2023-02-12T18:45:08.706Z,9.10
2023-02-12T18:47:35.375Z,9.10
2023-02-12T18:50:02.150Z,9.10
2023-02-12T18:52:28.861Z,9.10
2023-02-12T18:54:55.572Z,9.10
2023-02-12T18:57:22.236Z,9.10
2023-02-12T18:59:48.927Z,9.10
2023-02-12T19:02:15.727Z,9.10
2023-02-12T19:04:42.439Z,9.10
2023-02-12T19:07:09.095Z,9.10
2023-02-12T19:09:35.766Z,9.10
2023-02-12T19:12:02.536Z,9.10
2023-02-12T19:14:29.523Z,9.00
2023-02-12T19:16:56.292Z,9.00
2023-02-12T19:19:23.379Z,9.10
2023-02-12T19:21:50.781Z,9.10
2023-02-12T19:24:17.951Z,9.10
2023-02-12T19:26:45.226Z,9.00
2023-02-12T19:29:13.396Z,9.00
2023-02-12T19:31:44.241Z,9.00
2023-02-12T19:34:19.468Z,9.10
2023-02-12T19:36:47.529Z,9.00
2023-02-12T19:39:17.175Z,9.00
2023-02-12T19:41:44.299Z,9.00
2023-02-12T19:44:14.191Z,9.00
2023-02-12T19:46:41.612Z,9.00
2023-02-12T19:49:15.744Z,8.90
2023-02-12T19:51:43.525Z,8.90
2023-02-12T19:54:12.891Z,8.90
2023-02-12T19:56:39.992Z,8.90
2023-02-12T19:59:07.517Z,8.90
2023-02-12T20:01:34.640Z,8.90
2023-02-12T20:04:02.408Z,8.90
2023-02-12T20:06:36.200Z,8.90
2023-02-12T20:09:03.993Z,8.80
2023-02-12T20:11:32.534Z,8.80
2023-02-12T20:14:00.856Z,8.80
2023-02-12T20:16:36.168Z,8.80
2023-02-12T20:19:08.475Z,8.80
2023-02-12T20:21:35.462Z,8.80
2023-02-12T20:24:02.375Z,8.80
2023-02-12T20:26:30.876Z,8.80
2023-02-12T20:28:58.982Z,8.80
2023-02-12T20:31:28.518Z,8.80
2023-02-12T20:33:57.177Z,8.70
2023-02-12T20:36:25.272Z,8.70
2023-02-12T20:38:56.009Z,8.70
2023-02-12T20:41:24.348Z,8.70
2023-02-12T20:43:51.532Z,8.70
2023-02-12T20:46:21.179Z,8.70
2023-02-12T20:48:48.582Z,8.70
2023-02-12T20:51:17.964Z,8.70
2023-02-12T20:53:45.549Z,8.70
2023-02-12T20:56:21.285Z,8.70
2023-02-12T20:58:48.535Z,8.70
2023-02-12T21:01:18.551Z,8.70
2023-02-12T21:03:45.589Z,8.70
2023-02-12T21:06:12.873Z,8.70
2023-02-12T21:08:41.790Z,8.70
2023-02-12T21:11:16.262Z,8.70
2023-02-12T21:13:58.411Z,8.60
2023-02-12T21:16:34.735Z,8.60
2023-02-12T21:19:01.577Z,8.60
2023-02-12T21:21:31.078Z,8.60
2023-02-12T21:23:59.730Z,8.60
2023-02-12T21:26:29.178Z,8.60
2023-02-12T21:28:57.942Z,8.60
2023-02-12T21:31:27.107Z,8.60
2023-02-12T21:33:58.399Z,8.60
2023-02-12T21:36:31.801Z,8.60
2023-02-12T21:38:58.676Z,8.60
2023-02-12T21:41:31.270Z,8.60
2023-02-12T21:44:07.218Z,8.60
2023-02-12T21:46:35.686Z,8.50
2023-02-12T21:49:03.245Z,8.50
2023-02-12T21:51:36.354Z,8.50
2023-02-12T21:54:08.457Z,8.50
2023-02-12T21:56:40.457Z,8.50
2023-02-12T21:59:11.130Z,8.50
2023-02-12T22:01:41.713Z,8.50
2023-02-12T22:04:08.898Z,8.50
2023-02-12T22:06:41.792Z,8.50
2023-02-12T22:09:10.384Z,8.50
2023-02-12T22:11:38.329Z,8.50
2023-02-12T22:14:07.131Z,8.50
2023-02-12T22:16:34.953Z,8.50
2023-02-12T22:19:02.590Z,8.40
2023-02-12T22:21:33.275Z,8.40
2023-02-12T22:24:05.472Z,8.40
2023-02-12T22:26:33.436Z,8.50
2023-02-12T22:29:06.001Z,8.40
2023-02-12T22:31:34.683Z,8.40
2023-02-12T22:34:04.287Z,8.40
2023-02-12T22:36:31.581Z,8.40
2023-02-12T22:39:00.239Z,8.40
2023-02-12T22:41:28.509Z,8.40
2023-02-12T22:43:58.286Z,8.40
2023-02-12T22:46:24.990Z,8.40
2023-02-12T22:48:51.655Z,8.40
2023-02-12T22:51:19.629Z,8.30
2023-02-12T22:53:46.764Z,8.30
2023-02-12T22:56:13.744Z,8.30
2023-02-12T22:58:40.827Z,8.30
2023-02-12T23:01:09.478Z,8.30
2023-02-12T23:03:39.241Z,8.30
2023-02-12T23:06:08.755Z,8.30
2023-02-12T23:08:35.990Z,8.30
2023-02-12T23:11:03.300Z,8.30
2023-02-12T23:13:30.471Z,8.20
2023-02-12T23:15:57.887Z,8.20
2023-02-12T23:18:25.062Z,8.10
2023-02-12T23:20:52.666Z,8.10
2023-02-12T23:23:20.651Z,8.00
2023-02-12T23:25:47.960Z,8.10
2023-02-12T23:28:14.930Z,8.10
2023-02-12T23:30:41.773Z,8.10
2023-02-12T23:33:08.590Z,8.10
2023-02-12T23:35:35.327Z,8.10
2023-02-12T23:38:04.255Z,8.10
2023-02-12T23:40:32.683Z,8.10
2023-02-12T23:42:59.458Z,8.20
2023-02-12T23:45:27.386Z,8.20
2023-02-12T23:47:54.374Z,8.20
2023-02-12T23:50:21.146Z,8.20
2023-02-12T23:52:47.859Z,8.20
2023-02-12T23:55:14.680Z,8.20
2023-02-12T23:57:41.330Z,8.20
